Time;durP1;ratioP1;P1;durP2;ratioP2;P2;SDS_P1;SDS_P2;PMS_P1;PMS_P2;Temp;Humidity;BMP_temperature;BMP_pressure;BME280_temperature;BME280_humidity;BME280_pressure;Samples;Min_cycle;Max_cycle;Signal;HPM_P1;HPM_P2
2024/03/11 06:00:24;;;;;;;3.58;1.35;;;5.30;97.30;;;;;;4957159;23;20029;31
2024/03/11 06:02:26;;;;;;;3.65;1.42;;;5.30;97.30;;;;;;4046589;29;20097;-79
2024/03/11 06:04:27;;;;;;;3.65;1.30;;;5.40;97.20;;;;;;4053726;29;20104;-78
2024/03/11 06:06:29;;;;;;;3.80;1.50;;;5.40;97.10;;;;;;4053896;29;20423;-79
2024/03/11 06:08:31;;;;;;;3.95;1.40;;;5.50;96.90;;;;;;4053967;29;20084;-79
2024/03/11 06:10:33;;;;;;;2.58;1.40;;;5.50;96.70;;;;;;4053845;29;20060;-79
2024/03/11 06:12:35;;;;;;;2.75;1.20;;;5.50;96.60;;;;;;4053775;29;20084;-79
2024/03/11 06:14:36;;;;;;;3.05;1.30;;;5.40;96.70;;;;;;4053752;29;20479;-80
2024/03/11 06:16:39;;;;;;;3.78;1.30;;;5.40;96.80;;;;;;4053646;29;20049;-79
2024/03/11 06:18:41;;;;;;;3.45;1.38;;;5.40;96.90;;;;;;4053614;29;20112;-79
2024/03/11 06:20:43;;;;;;;2.45;1.17;;;5.50;97.10;;;;;;4054905;29;20048;-78
2024/03/11 06:22:45;;;;;;;2.92;1.20;;;5.60;96.50;;;;;;4069252;29;20462;-79
2024/03/11 06:24:47;;;;;;;3.08;1.30;;;5.60;96.30;;;;;;4069243;29;20406;-80
2024/03/11 06:26:52;;;;;;;3.50;1.23;;;5.60;96.10;;;;;;4068869;29;20052;-79
2024/03/11 06:28:55;;;;;;;2.80;1.02;;;5.50;96.20;;;;;;4069197;29;20059;-79
2024/03/11 06:30:57;;;;;;;2.60;1.10;;;5.40;96.30;;;;;;4069125;29;20079;-79
2024/03/11 06:33:00;;;;;;;3.08;1.40;;;5.50;96.20;;;;;;4068335;29;20482;-79
2024/03/11 06:35:04;;;;;;;2.60;1.10;;;5.50;96.40;;;;;;4061746;29;20059;-78
2024/03/11 06:37:05;;;;;;;4.25;1.48;;;5.50;96.00;;;;;;4053190;29;20091;-78
2024/03/11 06:39:08;;;;;;;3.13;1.48;;;5.50;96.20;;;;;;4053339;29;20474;-78
2024/03/11 06:41:10;;;;;;;4.30;1.75;;;5.50;96.20;;;;;;4069027;29;20490;-77
2024/03/11 06:43:12;;;;;;;3.33;1.50;;;5.60;96.20;;;;;;4069137;29;20099;-79
2024/03/11 06:45:14;;;;;;;18.17;10.43;;;5.60;96.10;;;;;;4068919;29;20084;-80
2024/03/11 06:47:16;;;;;;;7.38;3.75;;;5.60;96.20;;;;;;4068631;29;20060;-78
2024/03/11 06:49:19;;;;;;;8.82;4.20;;;5.70;96.20;;;;;;4069110;29;20100;-79
2024/03/11 06:51:21;;;;;;;13.23;7.25;;;5.80;96.10;;;;;;4067900;29;20048;-77
2024/03/11 06:53:23;;;;;;;8.55;4.32;;;5.80;96.00;;;;;;4067696;29;20055;-80
2024/03/11 06:55:25;;;;;;;10.38;4.55;;;5.90;95.90;;;;;;4074966;29;20059;-79
2024/03/11 06:57:27;;;;;;;8.40;4.13;;;5.90;95.90;;;;;;4076973;29;20059;-79
2024/03/11 06:59:29;;;;;;;7.18;2.65;;;6.00;95.70;;;;;;4077598;29;20059;-79
2024/03/11 07:01:31;;;;;;;4.30;1.80;;;6.00;95.60;;;;;;4086347;29;20139;-79
2024/03/11 07:03:33;;;;;;;6.82;2.92;;;6.00;95.30;;;;;;4087859;29;20130;-76
2024/03/11 07:05:36;;;;;;;4.03;1.63;;;6.10;95.40;;;;;;4084764;29;20043;-77
2024/03/11 07:07:39;;;;;;;4.10;1.90;;;6.00;95.50;;;;;;4084325;29;20509;-77
2024/03/11 07:09:41;;;;;;;6.25;3.53;;;6.00;95.80;;;;;;4084413;29;20103;-76
2024/03/11 07:11:43;;;;;;;21.52;12.68;;;6.00;95.80;;;;;;4084291;29;20398;-76
2024/03/11 07:13:45;;;;;;;33.05;18.42;;;6.10;95.80;;;;;;4084213;29;20051;-78
2024/03/11 07:15:49;;;;;;;10.25;4.95;;;6.20;95.70;;;;;;4084291;29;20141;-77
2024/03/11 07:17:50;;;;;;;7.90;2.85;;;6.30;95.50;;;;;;4084150;29;20052;-78
2024/03/11 07:19:53;;;;;;;4.00;1.90;;;6.30;95.30;;;;;;4084412;29;20052;-79
2024/03/11 07:21:57;;;;;;;5.32;1.90;;;6.40;95.30;;;;;;4083883;29;20051;-79
2024/03/11 07:23:59;;;;;;;3.88;1.38;;;6.40;95.20;;;;;;4084161;29;20218;-79
2024/03/11 07:26:01;;;;;;;3.53;1.52;;;6.50;95.30;;;;;;4083885;29;20556;-79
2024/03/11 07:28:04;;;;;;;4.68;1.60;;;6.50;95.30;;;;;;4084272;29;20055;-80
2024/03/11 07:30:09;;;;;;;5.47;1.60;;;6.50;95.70;;;;;;4076350;29;20482;-79
2024/03/11 07:32:12;;;;;;;3.25;1.67;;;6.50;96.10;;;;;;4084064;29;20056;-76
2024/03/11 07:34:12;;;;;;;3.90;1.60;;;6.50;96.30;;;;;;4084400;29;20056;-79
2024/03/11 07:36:16;;;;;;;4.13;2.00;;;6.60;96.10;;;;;;4084230;29;20059;-78
2024/03/11 07:38:23;;;;;;;4.13;2.10;;;6.60;96.30;;;;;;4084228;29;20054;-80
2024/03/11 07:40:25;;;;;;;4.85;2.30;;;6.60;96.50;;;;;;4083984;29;20051;-79
2024/03/11 07:42:29;;;;;;;5.97;2.40;;;6.60;97.00;;;;;;4084122;29;20197;-78
2024/03/11 07:44:30;;;;;;;3.03;1.75;;;6.70;96.90;;;;;;4085328;29;20058;-78
2024/03/11 07:46:34;;;;;;;5.20;1.83;;;6.80;96.70;;;;;;4087205;29;20051;-78
2024/03/11 07:48:35;;;;;;;4.03;1.75;;;6.80;96.30;;;;;;4087372;29;20056;-77
2024/03/11 07:50:37;;;;;;;4.07;1.80;;;6.80;96.80;;;;;;4087005;29;20106;-79
2024/03/11 07:52:39;;;;;;;2.63;1.23;;;6.90;96.70;;;;;;4087294;29;20143;-79
2024/03/11 07:54:42;;;;;;;3.03;1.30;;;6.90;96.10;;;;;;4086950;29;20103;-78
2024/03/11 07:56:43;;;;;;;2.60;1.05;;;7.00;95.80;;;;;;4087029;29;20114;-78
2024/03/11 07:58:46;;;;;;;3.38;1.40;;;7.10;95.50;;;;;;4086801;29;20051;-79
2024/03/11 08:00:47;;;;;;;3.40;1.25;;;7.20;95.40;;;;;;4086702;29;20058;-79
2024/03/11 08:02:49;;;;;;;3.72;1.45;;;7.20;95.50;;;;;;4091366;29;20489;-76
2024/03/11 08:04:52;;;;;;;2.92;1.20;;;7.30;95.30;;;;;;4087022;29;20501;-77
2024/03/11 08:06:53;;;;;;;3.30;1.35;;;7.40;95.50;;;;;;4086788;29;20052;-79
2024/03/11 08:08:55;;;;;;;3.38;1.10;;;7.40;95.40;;;;;;4086675;29;20374;-78
2024/03/11 08:10:58;;;;;;;3.45;1.40;;;7.50;94.40;;;;;;4086865;29;20099;-80
2024/03/11 08:12:59;;;;;;;3.00;0.95;;;7.60;94.30;;;;;;4086862;29;20111;-77
2024/03/11 08:15:04;;;;;;;2.95;0.90;;;7.70;92.90;;;;;;4078901;29;20048;-80
2024/03/11 08:17:06;;;;;;;2.75;0.70;;;7.70;92.60;;;;;;4070754;29;20058;-79
2024/03/11 08:19:09;;;;;;;3.40;1.05;;;7.80;91.80;;;;;;4070915;29;20557;-78
2024/03/11 08:21:11;;;;;;;2.85;0.73;;;7.80;92.30;;;;;;4071120;29;20414;-80
2024/03/11 08:23:13;;;;;;;1.83;0.80;;;7.90;91.30;;;;;;4070874;29;20052;-79
2024/03/11 08:25:17;;;;;;;1.63;0.68;;;7.90;91.10;;;;;;4070961;29;20410;-79
2024/03/11 08:27:22;;;;;;;1.92;0.65;;;8.00;91.10;;;;;;4071065;29;20088;-79
2024/03/11 08:29:26;;;;;;;1.83;0.50;;;8.00;90.10;;;;;;4070757;29;20092;-79
2024/03/11 08:31:28;;;;;;;1.63;0.70;;;8.10;90.00;;;;;;4070779;29;20458;-78
2024/03/11 08:33:30;;;;;;;2.95;0.70;;;8.10;90.10;;;;;;4070502;29;20463;-80
2024/03/11 08:35:32;;;;;;;1.80;0.50;;;8.20;90.30;;;;;;4070650;29;20103;-77
2024/03/11 08:37:32;;;;;;;1.35;0.60;;;8.30;88.90;;;;;;4070438;29;20482;-80
2024/03/11 08:39:34;;;;;;;2.95;0.50;;;8.30;88.60;;;;;;4070488;29;20048;-77
2024/03/11 08:41:37;;;;;;;3.17;0.70;;;8.30;88.50;;;;;;4070419;29;20129;-79
2024/03/11 08:43:41;;;;;;;2.95;0.50;;;8.40;87.70;;;;;;4070454;29;20044;-77
2024/03/11 08:45:44;;;;;;;2.13;0.60;;;8.50;87.60;;;;;;4070227;29;20096;-79
2024/03/11 08:47:47;;;;;;;2.33;0.65;;;8.50;87.70;;;;;;4070541;29;20108;-80
2024/03/11 08:49:49;;;;;;;1.88;0.60;;;8.60;87.60;;;;;;4070290;29;20072;-79
2024/03/11 08:51:52;;;;;;;1.33;0.50;;;8.60;87.00;;;;;;4076540;29;20106;-80
2024/03/11 08:53:54;;;;;;;1.48;0.50;;;8.70;86.80;;;;;;4086264;29;20051;-78
2024/03/11 08:55:56;;;;;;;2.28;0.60;;;8.70;86.80;;;;;;4085124;29;20091;-81
2024/03/11 08:57:59;;;;;;;2.92;0.50;;;8.70;85.30;;;;;;4085787;29;20415;-80
2024/03/11 09:00:03;;;;;;;3.40;0.60;;;8.80;84.10;;;;;;4085963;29;20450;-80
2024/03/11 09:02:07;;;;;;;2.70;0.55;;;8.90;84.20;;;;;;4085758;29;20138;-79
2024/03/11 09:04:10;;;;;;;1.38;0.50;;;8.90;83.60;;;;;;4085549;29;20106;-80
2024/03/11 09:06:22;;;;;;;2.03;0.45;;;9.00;83.10;;;;;;4086117;29;20054;-79
2024/03/11 09:08:23;;;;;;;1.33;0.50;;;9.00;83.10;;;;;;4086401;29;20078;-76
2024/03/11 09:10:25;;;;;;;1.42;0.60;;;9.00;83.10;;;;;;4074552;29;20387;-77
2024/03/11 09:12:27;;;;;;;2.15;0.60;;;9.10;83.30;;;;;;4070029;29;20048;-79
2024/03/11 09:14:31;;;;;;;1.23;0.50;;;9.10;82.30;;;;;;4070237;29;20099;-79
2024/03/11 09:16:36;;;;;;;2.47;0.57;;;9.10;82.20;;;;;;4070342;29;20056;-78
2024/03/11 09:18:41;;;;;;;2.13;0.68;;;9.20;82.10;;;;;;4070106;29;20090;-76
2024/03/11 09:20:45;;;;;;;1.55;0.40;;;9.20;82.10;;;;;;4070039;29;20044;-81
2024/03/11 09:22:50;;;;;;;1.65;0.60;;;9.30;82.50;;;;;;4076390;29;20135;-79
2024/03/11 09:24:51;;;;;;;2.28;0.50;;;9.30;82.70;;;;;;4085812;29;20047;-79
2024/03/11 09:26:53;;;;;;;1.70;0.60;;;9.30;81.80;;;;;;4077107;29;20077;-79
2024/03/11 09:28:57;;;;;;;2.00;0.75;;;9.40;82.10;;;;;;4068990;29;20052;-79
2024/03/11 09:30:59;;;;;;;1.25;0.60;;;9.40;82.50;;;;;;4067668;29;20091;-79
2024/03/11 09:33:02;;;;;;;3.35;0.80;;;9.50;82.40;;;;;;4067587;29;20558;-80
2024/03/11 09:35:05;;;;;;;2.08;0.73;;;9.50;82.80;;;;;;4068548;29;20490;-78
2024/03/11 09:37:09;;;;;;;2.03;0.90;;;9.60;82.70;;;;;;4068580;29;20055;-79
2024/03/11 09:39:12;;;;;;;2.00;0.80;;;9.60;82.10;;;;;;4080045;29;20556;-79
2024/03/11 09:41:15;;;;;;;2.33;0.80;;;9.60;82.30;;;;;;4083186;29;20047;-79
2024/03/11 09:43:19;;;;;;;2.10;0.55;;;9.70;81.50;;;;;;4083300;29;20415;-79
2024/03/11 09:45:23;;;;;;;2.58;0.70;;;9.70;80.20;;;;;;4081115;29;20052;-78
2024/03/11 09:47:26;;;;;;;3.53;1.13;;;9.70;80.60;;;;;;4072483;29;20106;-79
2024/03/11 09:49:31;;;;;;;2.42;0.60;;;9.80;80.60;;;;;;4067533;29;20167;-78
2024/03/11 09:51:33;;;;;;;2.10;0.70;;;9.80;79.40;;;;;;4067680;29;20059;-78
2024/03/11 09:53:37;;;;;;;1.50;0.60;;;9.80;79.50;;;;;;4067662;29;20312;-80
2024/03/11 09:55:39;;;;;;;1.60;0.45;;;9.90;79.60;;;;;;4068368;29;20111;-78
2024/03/11 09:57:45;;;;;;;1.55;0.57;;;9.90;79.00;;;;;;4067311;29;20062;-79
2024/03/11 09:59:49;;;;;;;2.15;0.70;;;10.00;78.40;;;;;;4067511;29;20059;-77
2024/03/11 10:01:53;;;;;;;2.17;0.60;;;10.00;79.00;;;;;;4066814;29;20064;-80
2024/03/11 10:03:57;;;;;;;2.50;0.70;;;10.10;79.50;;;;;;4067197;29;20111;-77
2024/03/11 10:06:04;;;;;;;2.33;0.68;;;10.10;78.90;;;;;;4075130;29;20165;-78
2024/03/11 10:08:05;;;;;;;2.28;0.60;;;10.20;78.40;;;;;;4082832;29;20048;-77
2024/03/11 10:10:12;;;;;;;1.50;0.60;;;10.20;76.80;;;;;;4083037;29;20051;-79
2024/03/11 10:12:15;;;;;;;1.65;0.63;;;10.20;76.10;;;;;;4083031;29;20485;-76
2024/03/11 10:14:21;;;;;;;2.33;0.73;;;10.30;76.40;;;;;;4082739;29;20469;-78
2024/03/11 10:16:26;;;;;;;1.25;0.47;;;10.30;76.90;;;;;;4082984;29;20062;-80
2024/03/11 10:18:31;;;;;;;2.13;0.65;;;10.30;77.20;;;;;;4083086;29;20064;-76
2024/03/11 10:20:34;;;;;;;1.60;0.50;;;10.40;77.50;;;;;;4082974;29;20083;-79
2024/03/11 10:22:37;;;;;;;1.92;0.47;;;10.40;75.10;;;;;;4083168;29;20430;-77
2024/03/11 10:24:39;;;;;;;2.78;0.60;;;10.50;75.20;;;;;;4082786;29;20063;-77
2024/03/11 10:26:42;;;;;;;2.03;0.50;;;10.60;75.20;;;;;;4082665;29;20059;-77
2024/03/11 10:28:44;;;;;;;1.83;0.55;;;10.60;76.60;;;;;;4082917;29;20051;-77
2024/03/11 10:30:47;;;;;;;1.27;0.40;;;10.60;76.40;;;;;;4082551;29;20063;-77
2024/03/11 10:32:52;;;;;;;1.90;0.70;;;10.70;75.60;;;;;;4082207;29;20048;-77
2024/03/11 10:34:55;;;;;;;2.45;0.70;;;10.80;76.30;;;;;;4081616;29;20055;-79
2024/03/11 10:36:59;;;;;;;1.85;0.50;;;10.80;76.30;;;;;;4082615;29;20056;-77
2024/03/11 10:39:17;;;;;;;1.77;0.52;;;10.80;76.90;;;;;;4082306;29;20422;-78
2024/03/11 10:41:21;;;;;;;1.85;0.70;;;10.80;75.70;;;;;;4082505;29;20095;-78
2024/03/11 10:43:25;;;;;;;2.17;0.90;;;10.90;76.40;;;;;;4082573;29;20090;-80
2024/03/11 10:45:32;;;;;;;1.75;0.60;;;10.90;75.70;;;;;;4080476;29;20477;-79
2024/03/11 10:47:34;;;;;;;1.63;0.60;;;11.00;73.70;;;;;;4076584;29;20048;-77
2024/03/11 10:49:40;;;;;;;3.28;1.20;;;11.10;75.70;;;;;;4076007;29;20055;-80
2024/03/11 10:51:48;;;;;;;1.75;0.70;;;11.10;71.00;;;;;;4082368;29;20054;-78
2024/03/11 10:53:51;;;;;;;1.25;0.60;;;11.10;71.00;;;;;;4082548;29;20083;-78
2024/03/11 10:55:57;;;;;;;3.05;0.60;;;11.10;71.80;;;;;;4082197;29;20086;-78
2024/03/11 10:58:01;;;;;;;1.95;0.60;;;11.10;71.80;;;;;;4080330;29;20059;-79
2024/03/11 11:00:10;;;;;;;1.48;0.50;;;11.20;71.00;;;;;;4067600;29;20486;-79
2024/03/11 11:02:22;;;;;;;2.40;0.75;;;11.30;70.90;;;;;;4066152;29;20060;-77
2024/03/11 11:04:28;;;;;;;2.05;0.80;;;11.40;70.90;;;;;;4066521;29;20585;-79
2024/03/11 11:06:31;;;;;;;2.30;0.80;;;11.50;71.10;;;;;;4066596;29;20495;-79
2024/03/11 11:08:37;;;;;;;1.85;0.50;;;11.50;70.50;;;;;;4066738;29;20111;-78
2024/03/11 11:10:39;;;;;;;1.20;0.60;;;11.60;71.10;;;;;;4066622;29;20044;-78
2024/03/11 11:12:43;;;;;;;3.60;0.70;;;11.80;69.20;;;;;;4066751;29;20052;-73
2024/03/11 11:14:44;;;;;;;2.13;0.70;;;11.90;71.80;;;;;;4066524;29;20090;-76
2024/03/11 11:16:46;;;;;;;1.73;0.57;;;11.90;71.30;;;;;;4066849;29;20056;-79
2024/03/11 11:18:48;;;;;;;1.88;0.75;;;11.80;71.50;;;;;;4066600;29;20462;-79
2024/03/11 11:20:52;;;;;;;2.47;0.70;;;11.90;71.40;;;;;;4069632;29;20048;-78
2024/03/11 11:22:53;;;;;;;1.73;0.60;;;12.00;69.20;;;;;;4069756;29;20048;-79
2024/03/11 11:24:55;;;;;;;1.60;0.70;;;11.80;69.60;;;;;;4069597;29;20088;-78
2024/03/11 11:26:58;;;;;;;1.92;0.75;;;11.80;71.40;;;;;;4079572;29;20470;-77
2024/03/11 11:29:03;;;;;;;1.80;0.60;;;11.80;71.10;;;;;;4085383;29;20453;-75
2024/03/11 11:31:11;;;;;;;2.08;0.68;;;11.70;69.50;;;;;;4085409;29;20052;-77
2024/03/11 11:33:54;;;;;;;2.88;0.90;;;11.60;69.50;;;;;;4085113;29;20047;-77
2024/03/11 11:35:56;;;;;;;1.83;0.50;;;11.70;69.70;;;;;;4069393;29;20083;-80
2024/03/11 11:37:57;;;;;;;1.52;0.50;;;11.60;71.20;;;;;;4069090;29;20052;-79
2024/03/11 11:40:33;;;;;;;1.77;0.68;;;11.80;71.60;;;;;;4069734;29;20076;-79
2024/03/11 11:42:37;;;;;;;1.88;0.60;;;11.90;72.60;;;;;;4069450;29;20656;-79
2024/03/11 11:44:49;;;;;;;3.28;0.88;;;12.00;72.70;;;;;;4067488;29;20059;-79
2024/03/11 11:46:51;;;;;;;2.95;0.80;;;12.10;70.80;;;;;;4069465;29;20060;-77
2024/03/11 11:49:17;;;;;;;3.95;0.90;;;12.30;69.50;;;;;;4069343;29;20473;-78
2024/03/11 11:51:20;;;;;;;1.83;0.50;;;12.20;68.80;;;;;;4069179;29;20510;-79
2024/03/11 11:53:31;;;;;;;2.25;0.63;;;12.30;69.30;;;;;;4069539;29;20047;-78
2024/03/11 11:55:32;;;;;;;1.65;0.60;;;12.40;69.50;;;;;;4069040;29;20128;-79
2024/03/11 11:57:35;;;;;;;4.28;0.70;;;12.60;70.30;;;;;;4069129;29;20399;-79
2024/03/11 11:59:38;;;;;;;2.67;0.80;;;12.70;67.30;;;;;;4069088;29;20435;-78
2024/03/11 12:01:50;;;;;;;1.30;0.60;;;12.80;67.10;;;;;;4068826;29;20055;-79
2024/03/11 12:03:52;;;;;;;1.40;0.50;;;13.10;64.70;;;;;;4072221;29;20052;-78
2024/03/11 12:06:08;;;;;;;2.20;0.70;;;13.20;63.80;;;;;;4069381;29;20060;-78
2024/03/11 12:08:19;;;;;;;2.35;0.52;;;13.10;61.70;;;;;;4070556;29;20462;-79
2024/03/11 12:10:21;;;;;;;1.55;0.50;;;13.30;62.60;;;;;;4072111;29;20110;-76
2024/03/11 12:12:28;;;;;;;0.82;0.38;;;13.20;62.70;;;;;;4070020;29;20459;-77
2024/03/11 12:14:31;;;;;;;0.98;0.30;;;13.10;60.60;;;;;;4072221;29;20088;-76
2024/03/11 12:16:32;;;;;;;1.65;0.50;;;13.30;61.90;;;;;;4071629;29;20087;-78
2024/03/11 12:18:35;;;;;;;2.50;0.52;;;13.30;60.40;;;;;;4070126;29;20048;-78
2024/03/11 12:20:37;;;;;;;4.57;0.75;;;13.30;58.70;;;;;;4070786;29;20052;-77
2024/03/11 12:22:38;;;;;;;1.55;0.50;;;13.20;59.70;;;;;;4070542;29;20505;-75
2024/03/11 12:24:41;;;;;;;2.30;0.55;;;13.10;59.80;;;;;;4075742;29;20043;-78
2024/03/11 12:26:46;;;;;;;1.08;0.50;;;13.20;59.90;;;;;;4084715;29;20601;-76
2024/03/11 12:29:06;;;;;;;1.92;0.50;;;13.40;61.50;;;;;;4084724;29;20087;-79
2024/03/11 12:31:15;;;;;;;2.10;0.50;;;13.60;59.20;;;;;;4083218;29;20532;-79
2024/03/11 12:33:17;;;;;;;2.28;0.50;;;13.80;59.50;;;;;;4084639;29;20516;-79
2024/03/11 12:35:20;;;;;;;1.05;0.47;;;13.80;58.50;;;;;;4084452;29;20051;-79
2024/03/11 12:37:22;;;;;;;1.13;0.45;;;13.80;59.00;;;;;;4084477;29;20047;-78
2024/03/11 12:39:26;;;;;;;1.98;0.60;;;13.70;58.70;;;;;;4084174;29;20445;-79
2024/03/11 12:41:37;;;;;;;1.88;0.57;;;13.50;58.70;;;;;;4084478;29;20405;-78
2024/03/11 12:43:41;;;;;;;1.88;0.50;;;13.40;59.40;;;;;;4084470;29;20047;-79
2024/03/11 12:45:45;;;;;;;1.58;0.57;;;13.50;59.70;;;;;;4082519;29;20103;-79
2024/03/11 12:47:46;;;;;;;2.22;0.43;;;13.60;59.60;;;;;;4084068;29;20071;-77
2024/03/11 12:49:49;;;;;;;2.20;0.63;;;13.70;58.90;;;;;;4084073;29;20401;-79
2024/03/11 12:52:05;;;;;;;1.15;0.40;;;13.80;58.00;;;;;;4084203;29;20076;-80
2024/03/11 12:54:18;;;;;;;1.75;0.60;;;13.80;58.20;;;;;;4084192;29;20473;-79
2024/03/11 12:56:22;;;;;;;2.97;0.70;;;13.90;58.60;;;;;;4082964;29;20114;-79
2024/03/11 12:58:24;;;;;;;1.75;0.50;;;14.40;58.30;;;;;;4083463;29;20110;-77
2024/03/11 13:00:29;;;;;;;1.65;0.60;;;14.80;57.30;;;;;;4083377;29;20058;-79
2024/03/11 13:02:34;;;;;;;1.77;0.68;;;14.80;56.90;;;;;;4084112;29;20468;-77
2024/03/11 13:04:36;;;;;;;;;;;14.70;57.10;;;;;;4084393;29;20107;-80
2024/03/11 13:06:38;;;;;;;3.13;1.05;;;14.80;57.50;;;;;;4084005;29;20431;-80
2024/03/11 13:08:42;;;;;;;1.65;0.70;;;14.90;57.10;;;;;;4083945;29;20048;-78
2024/03/11 13:10:44;;;;;;;1.55;0.63;;;14.80;57.20;;;;;;4083741;29;20059;-80
2024/03/11 13:12:46;;;;;;;1.77;0.65;;;14.60;58.00;;;;;;4083469;29;20059;-80
2024/03/11 13:14:51;;;;;;;2.15;0.60;;;14.40;58.40;;;;;;4075443;29;20486;-79
2024/03/11 13:16:54;;;;;;;1.65;0.70;;;14.30;59.30;;;;;;4068041;29;20375;-79
2024/03/11 13:18:54;;;;;;;2.20;0.60;;;14.60;59.90;;;;;;4068349;29;20063;-79
2024/03/11 13:20:57;;;;;;;1.95;0.80;;;15.10;59.60;;;;;;4083457;29;20060;-74
2024/03/11 13:22:59;;;;;;;1.83;0.60;;;15.40;58.40;;;;;;4083512;29;20087;-74
2024/03/11 13:25:04;;;;;;;1.77;0.65;;;15.80;58.00;;;;;;4083413;29;20082;-75
2024/03/11 13:27:07;;;;;;;1.08;0.52;;;16.20;57.10;;;;;;4083166;29;20059;-75
2024/03/11 13:29:09;;;;;;;1.90;0.68;;;16.50;56.50;;;;;;4083369;29;20549;-73
2024/03/11 13:31:12;;;;;;;3.28;0.88;;;16.90;56.20;;;;;;4076728;29;20095;-75
2024/03/11 13:33:14;;;;;;;1.95;0.70;;;17.40;56.70;;;;;;4067665;29;20599;-75
2024/03/11 13:35:16;;;;;;;1.63;0.60;;;17.70;53.60;;;;;;4067754;29;20060;-75
2024/03/11 13:37:19;;;;;;;1.40;0.63;;;17.80;55.70;;;;;;4069981;29;20044;-75
2024/03/11 13:39:34;;;;;;;1.52;0.60;;;18.00;54.90;;;;;;4067200;29;20139;-75
2024/03/11 13:41:39;;;;;;;2.03;0.60;;;18.40;54.00;;;;;;4068450;29;20056;-74
2024/03/11 13:43:41;;;;;;;2.03;0.60;;;18.70;53.50;;;;;;4083052;29;20048;-75
2024/03/11 13:45:49;;;;;;;2.97;1.02;;;18.90;54.20;;;;;;4073075;29;20044;-76
2024/03/11 13:47:51;;;;;;;3.10;0.90;;;19.40;53.90;;;;;;4081128;29;20063;-77
2024/03/11 13:49:53;;;;;;;2.10;0.80;;;19.70;51.70;;;;;;4084032;29;20059;-76
2024/03/11 13:51:56;;;;;;;2.17;0.80;;;20.00;49.50;;;;;;4072152;29;20052;-76
2024/03/11 13:53:57;;;;;;;2.67;1.10;;;20.40;48.70;;;;;;4067319;29;20104;-76
2024/03/11 13:56:00;;;;;;;2.65;0.85;;;20.70;47.00;;;;;;4067239;29;20052;-75
2024/03/11 13:58:03;;;;;;;2.95;1.00;;;22.80;44.50;;;;;;4067334;29;20051;-75
2024/03/11 14:00:09;;;;;;;1.83;0.77;;;23.20;40.10;;;;;;4067577;29;20047;-77
2024/03/11 14:02:12;;;;;;;3.28;1.45;;;23.50;36.80;;;;;;4067277;29;20064;-75
2024/03/11 14:04:14;;;;;;;3.92;2.08;;;24.40;37.50;;;;;;4070909;29;20080;-75
2024/03/11 14:06:17;;;;;;;2.38;1.05;;;24.40;34.30;;;;;;4067235;29;20474;-77
2024/03/11 14:08:21;;;;;;;3.55;1.10;;;28.30;32.20;;;;;;4051674;29;20052;-78
2024/03/11 14:10:23;;;;;;;2.75;0.82;;;32.10;28.00;;;;;;4063385;29;20087;-78
2024/03/11 14:12:25;;;;;;;1.45;0.80;;;34.20;24.70;;;;;;4082968;29;20052;-78
2024/03/11 14:14:28;;;;;;;2.35;1.05;;;35.50;23.30;;;;;;4073770;29;20047;-76
2024/03/11 14:16:31;;;;;;;1.58;0.63;;;33.60;23.70;;;;;;4075921;29;20406;-76
2024/03/11 14:18:33;;;;;;;1.52;0.57;;;30.60;23.70;;;;;;4082425;29;20059;-80
2024/03/11 14:20:36;;;;;;;1.75;0.50;;;27.40;27.30;;;;;;4082348;29;20075;-78
2024/03/11 14:22:37;;;;;;;1.35;0.40;;;26.00;29.20;;;;;;4082839;29;20135;-77
2024/03/11 14:24:39;;;;;;;2.15;0.65;;;24.60;30.50;;;;;;4077096;29;20100;-78
2024/03/11 14:26:42;;;;;;;2.67;0.77;;;23.60;32.00;;;;;;4066797;29;20442;-78
2024/03/11 14:28:46;;;;;;;3.33;0.88;;;22.30;34.20;;;;;;4067112;29;20391;-77
2024/03/11 14:30:50;;;;;;;1.83;0.70;;;20.70;38.00;;;;;;4066777;29;20051;-78
2024/03/11 14:32:52;;;;;;;3.22;0.70;;;20.00;39.00;;;;;;4080833;29;20142;-77
2024/03/11 14:34:54;;;;;;;1.85;0.60;;;19.60;40.70;;;;;;4071722;29;20091;-76
2024/03/11 14:36:55;;;;;;;2.97;1.30;;;19.30;40.70;;;;;;4073114;29;20048;-77
2024/03/11 14:38:57;;;;;;;3.47;1.30;;;19.10;41.50;;;;;;4075291;29;20458;-78
2024/03/11 14:41:00;;;;;;;3.38;1.00;;;18.90;42.10;;;;;;4067586;29;20039;-78
2024/03/11 14:43:04;;;;;;;3.83;0.80;;;18.80;42.90;;;;;;4081265;29;20056;-78
2024/03/11 14:45:07;;;;;;;2.45;0.60;;;18.50;43.30;;;;;;4078767;29;20055;-78
2024/03/11 14:47:12;;;;;;;3.03;0.70;;;18.30;44.90;;;;;;4072832;29;20059;-77
2024/03/11 14:49:15;;;;;;;3.30;0.70;;;18.10;45.20;;;;;;4080672;29;20136;-78
2024/03/11 14:51:21;;;;;;;1.23;0.40;;;17.90;45.90;;;;;;4082585;29;20054;-79
2024/03/11 14:53:26;;;;;;;0.93;0.40;;;17.80;45.80;;;;;;4067532;29;20052;-79
2024/03/11 14:55:32;;;;;;;2.00;0.52;;;17.60;46.60;;;;;;4066383;29;20083;-78
2024/03/11 14:57:34;;;;;;;3.17;0.70;;;17.40;47.50;;;;;;4066889;29;20554;-78
2024/03/11 14:59:36;;;;;;;4.93;1.38;;;17.20;48.60;;;;;;4066697;29;20486;-78
2024/03/11 15:01:38;;;;;;;2.75;0.70;;;16.90;50.30;;;;;;4066560;29;20459;-80
2024/03/11 15:03:40;;;;;;;2.15;0.70;;;16.80;52.30;;;;;;4066336;29;20056;-77
2024/03/11 15:05:45;;;;;;;1.55;0.47;;;16.40;54.80;;;;;;4066856;29;20086;-77
2024/03/11 15:07:56;;;;;;;2.67;0.70;;;16.20;56.30;;;;;;4071858;29;20058;-78
2024/03/11 15:09:59;;;;;;;2.42;0.70;;;16.10;58.80;;;;;;4067119;29;20908;-78
2024/03/11 15:12:01;;;;;;;4.78;0.75;;;16.00;59.10;;;;;;4066754;29;20056;-78
2024/03/11 15:14:03;;;;;;;2.80;0.60;;;15.90;59.30;;;;;;4066732;29;20469;-77
2024/03/11 15:16:07;;;;;;;2.45;0.45;;;15.80;61.00;;;;;;4066733;29;20056;-77
2024/03/11 15:18:11;;;;;;;2.63;0.60;;;15.60;62.30;;;;;;4066622;29;20048;-79
2024/03/11 15:20:14;;;;;;;2.53;0.65;;;15.40;61.30;;;;;;4066422;29;20052;-79
2024/03/11 15:22:16;;;;;;;2.30;0.50;;;15.50;63.80;;;;;;4066746;29;20497;-79
2024/03/11 15:24:18;;;;;;;2.38;0.70;;;15.50;63.10;;;;;;4066943;29;20080;-80
2024/03/11 15:26:20;;;;;;;2.10;0.73;;;15.60;61.50;;;;;;4066132;29;20088;-78
2024/03/11 15:28:22;;;;;;;2.67;1.08;;;16.40;61.90;;;;;;4075650;29;20107;-78
2024/03/11 15:30:27;;;;;;;2.85;1.00;;;17.50;58.90;;;;;;4082503;29;20469;-76
2024/03/11 15:32:28;;;;;;;2.42;1.10;;;18.30;53.50;;;;;;4082261;29;20079;-78
2024/03/11 15:34:30;;;;;;;2.35;1.05;;;18.40;51.00;;;;;;4082338;29;20477;-77
2024/03/11 15:36:37;;;;;;;3.13;1.00;;;18.90;50.40;;;;;;4082129;29;20052;-76
2024/03/11 15:38:38;;;;;;;3.30;1.20;;;19.80;49.50;;;;;;4066944;29;20056;-77
2024/03/11 15:40:40;;;;;;;3.22;1.10;;;20.30;47.80;;;;;;4066657;29;20045;-77
2024/03/11 15:42:43;;;;;;;2.72;1.08;;;20.00;47.50;;;;;;4066885;29;20079;-77
2024/03/11 15:44:46;;;;;;;2.33;0.90;;;19.50;48.70;;;;;;4064797;29;20162;-78
2024/03/11 15:46:48;;;;;;;2.03;0.80;;;19.10;49.90;;;;;;4067295;29;20073;-76
2024/03/11 15:48:51;;;;;;;2.63;0.90;;;18.60;50.50;;;;;;4066308;29;20079;-78
2024/03/11 15:50:53;;;;;;;2.55;0.80;;;19.90;50.10;;;;;;4066162;29;20482;-77
2024/03/11 15:52:57;;;;;;;2.50;0.90;;;20.10;48.40;;;;;;4076332;29;20055;-76
2024/03/11 15:54:59;;;;;;;2.65;0.80;;;20.00;49.00;;;;;;4079927;29;20048;-76
2024/03/11 15:57:01;;;;;;;2.72;0.77;;;21.30;46.50;;;;;;4067252;29;20051;-75
2024/03/11 15:59:06;;;;;;;3.42;0.70;;;21.70;46.80;;;;;;4066106;29;20055;-79
2024/03/11 16:01:13;;;;;;;5.45;2.60;;;20.50;46.30;;;;;;4066051;29;20060;-77
2024/03/11 16:03:18;;;;;;;6.95;3.65;;;19.50;47.10;;;;;;4070990;29;20048;-78
2024/03/11 16:05:23;;;;;;;6.10;2.38;;;19.10;48.80;;;;;;4076420;29;20055;-79
2024/03/11 16:07:25;;;;;;;9.20;4.38;;;18.50;49.40;;;;;;4069960;29;20054;-79
2024/03/11 16:11:48;;;;;;;6.45;3.42;;;19.30;48.10;;;;;;4055200;29;20071;-79
2024/03/11 16:13:51;;;;;;;3.55;1.10;;;18.90;47.40;;;;;;4069914;29;20462;-80
2024/03/11 16:15:53;;;;;;;1.90;0.70;;;18.60;47.30;;;;;;4083818;29;20054;-80
2024/03/11 16:17:56;;;;;;;2.40;0.60;;;18.30;47.80;;;;;;4071929;29;20426;-77
2024/03/11 16:19:58;;;;;;;1.90;0.70;;;18.70;47.60;;;;;;4068557;29;20059;-80
2024/03/11 16:21:59;;;;;;;2.33;0.70;;;19.30;45.30;;;;;;4068600;29;20075;-80
2024/03/11 16:24:03;;;;;;;2.13;0.70;;;20.10;44.10;;;;;;4072210;29;20048;-80
2024/03/11 16:26:05;;;;;;;2.47;0.80;;;21.20;42.00;;;;;;4083918;29;20479;-79
2024/03/11 16:28:09;;;;;;;1.75;0.90;;;21.90;39.50;;;;;;4084456;29;20138;-80
2024/03/11 16:30:14;;;;;;;1.83;1.00;;;22.70;38.80;;;;;;4084348;29;20047;-80
2024/03/11 16:32:17;;;;;;;2.50;0.80;;;23.30;37.80;;;;;;4082604;29;20103;-77
2024/03/11 16:34:18;;;;;;;1.25;0.55;;;23.80;36.60;;;;;;4079839;29;20054;-77
2024/03/11 16:36:20;;;;;;;1.60;0.60;;;23.80;35.10;;;;;;4071609;29;20076;-78
2024/03/11 16:38:22;;;;;;;1.17;0.40;;;23.80;35.30;;;;;;4069306;29;20123;-77
2024/03/11 16:40:25;;;;;;;1.98;0.68;;;22.50;36.20;;;;;;4077518;29;20056;-77
2024/03/11 16:42:30;;;;;;;1.85;0.57;;;20.80;39.10;;;;;;4084199;29;20060;-75
2024/03/11 16:44:33;;;;;;;1.83;0.50;;;19.70;40.90;;;;;;4076928;29;20052;-77
2024/03/11 16:46:34;;;;;;;2.50;1.00;;;19.60;42.60;;;;;;4072324;29;20131;-77
2024/03/11 16:48:37;;;;;;;4.38;2.60;;;20.40;41.60;;;;;;4083548;29;20058;-77